createdAt,value
2023-03-11T00:00:46.861Z,15.27
2023-03-11T00:03:15.907Z,15.53
2023-03-11T00:05:44.972Z,17.07
2023-03-11T00:08:15.470Z,17.53
2023-03-11T00:10:44.454Z,21.43
2023-03-11T00:13:14.147Z,16.17
2023-03-11T00:15:41.947Z,15.13
2023-03-11T00:18:08.979Z,16.37
2023-03-11T00:20:38.486Z,14.33
2023-03-11T00:23:07.354Z,16.70
2023-03-11T00:25:37.599Z,13.10
2023-03-11T00:28:05.759Z,13.27
2023-03-11T00:30:32.761Z,15.90
2023-03-11T00:33:00.122Z,13.47
2023-03-11T00:35:29.177Z,15.40
2023-03-11T00:37:58.445Z,15.20
2023-03-11T00:40:27.363Z,14.33
2023-03-11T00:42:56.348Z,14.43
2023-03-11T00:45:23.766Z,15.30
2023-03-11T00:47:50.925Z,16.33
2023-03-11T00:50:20.321Z,16.83
2023-03-11T00:52:49.238Z,15.40
2023-03-11T00:55:19.292Z,17.20
2023-03-11T00:57:46.982Z,19.60
2023-03-11T01:00:18.043Z,17.47
2023-03-11T01:02:45.403Z,19.80
2023-03-11T01:05:12.772Z,19.03
2023-03-11T01:07:40.056Z,16.30
2023-03-11T01:10:10.108Z,20.80
2023-03-11T01:12:37.426Z,16.60
2023-03-11T01:15:05.825Z,21.83
2023-03-11T01:17:34.604Z,20.80
2023-03-11T01:20:01.771Z,17.03
2023-03-11T01:22:28.983Z,17.77
2023-03-11T01:24:55.769Z,20.17
2023-03-11T01:27:22.950Z,20.97
2023-03-11T01:29:49.717Z,18.77
2023-03-11T01:32:17.008Z,18.97
2023-03-11T01:34:45.181Z,20.17
2023-03-11T01:37:12.314Z,19.50
2023-03-11T01:39:39.129Z,20.00
2023-03-11T01:42:06.601Z,21.23
2023-03-11T01:44:33.383Z,22.77
2023-03-11T01:47:36.307Z,22.00
2023-03-11T01:50:08.615Z,19.40
2023-03-11T01:52:36.271Z,18.60
2023-03-11T01:55:03.232Z,22.67
2023-03-11T01:57:31.046Z,21.63
2023-03-11T02:00:00.651Z,21.47
2023-03-11T02:02:32.707Z,21.97
2023-03-11T02:05:01.193Z,24.50
2023-03-11T02:07:30.245Z,25.57
2023-03-11T02:09:57.064Z,21.77
2023-03-11T02:12:24.710Z,24.00
2023-03-11T02:14:54.591Z,24.37
2023-03-11T02:17:22.506Z,25.17
2023-03-11T02:19:59.578Z,23.03
2023-03-11T02:22:29.843Z,23.93
2023-03-11T02:25:03.829Z,17.83
2023-03-11T02:27:36.213Z,22.60
2023-03-11T02:30:04.923Z,21.87
2023-03-11T02:32:32.165Z,19.17
2023-03-11T02:34:59.028Z,17.20
2023-03-11T02:37:26.064Z,17.27
2023-03-11T02:39:55.585Z,12.97
2023-03-11T02:42:26.286Z,16.47
2023-03-11T02:44:58.686Z,21.10
2023-03-11T02:47:26.468Z,20.07
2023-03-11T02:49:56.152Z,13.27
2023-03-11T02:52:25.072Z,16.93
2023-03-11T02:54:51.916Z,17.90
2023-03-11T02:57:19.687Z,16.43
2023-03-11T02:59:46.533Z,17.07
2023-03-11T03:02:14.774Z,14.73
2023-03-11T03:04:41.624Z,17.13
2023-03-11T03:07:09.151Z,16.30
2023-03-11T03:09:36.745Z,18.23
2023-03-11T03:12:05.113Z,21.07
2023-03-11T03:14:32.515Z,14.53
2023-03-11T03:16:59.926Z,15.50
2023-03-11T03:19:28.322Z,15.47
2023-03-11T03:21:55.507Z,13.83
2023-03-11T03:24:22.360Z,13.20
2023-03-11T03:26:49.534Z,13.53
2023-03-11T03:29:16.356Z,9.37
2023-03-11T03:31:43.611Z,11.70
2023-03-11T03:34:11.090Z,10.87
2023-03-11T03:36:39.984Z,13.77
2023-03-11T03:39:06.875Z,8.53
2023-03-11T03:41:34.144Z,11.50
2023-03-11T03:44:01.036Z,9.97
2023-03-11T03:46:28.911Z,10.57
2023-03-11T03:48:55.912Z,10.90
2023-03-11T03:51:23.228Z,10.03
2023-03-11T03:53:51.561Z,8.87
2023-03-11T03:56:19.536Z,9.40
2023-03-11T03:58:46.389Z,10.37
2023-03-11T04:01:14.551Z,10.83
2023-03-11T04:03:41.690Z,11.93
2023-03-11T04:06:10.842Z,12.93
2023-03-11T04:08:38.231Z,12.83
2023-03-11T04:11:06.834Z,13.10
2023-03-11T04:13:33.885Z,8.80
2023-03-11T04:16:04.197Z,13.27
2023-03-11T04:18:31.227Z,12.70
2023-03-11T04:20:58.397Z,10.67
2023-03-11T04:23:25.267Z,10.17
2023-03-11T04:25:52.447Z,10.03
2023-03-11T04:28:20.764Z,8.07
2023-03-11T04:30:48.081Z,6.90
2023-03-11T04:33:14.983Z,5.27
2023-03-11T04:35:42.269Z,10.40
2023-03-11T04:38:09.122Z,11.93
2023-03-11T04:40:37.475Z,8.27
2023-03-11T04:43:04.822Z,7.83
2023-03-11T04:45:33.700Z,12.40
2023-03-11T04:48:00.537Z,10.60
2023-03-11T04:50:27.763Z,7.70
2023-03-11T04:52:54.620Z,10.17
2023-03-11T04:55:21.825Z,8.77
2023-03-11T04:57:48.746Z,13.37
2023-03-11T05:00:16.899Z,7.17
2023-03-11T05:02:45.149Z,8.60
2023-03-11T05:05:16.960Z,10.77
2023-03-11T05:07:43.807Z,10.90
2023-03-11T05:10:12.292Z,6.80
2023-03-11T05:12:39.366Z,8.90
2023-03-11T05:15:07.833Z,9.50
2023-03-11T05:17:34.754Z,5.83
2023-03-11T05:20:06.620Z,7.70
2023-03-11T05:22:33.916Z,9.73
2023-03-11T05:25:01.148Z,8.10
2023-03-11T05:27:28.085Z,8.80
2023-03-11T05:29:55.743Z,6.60
2023-03-11T05:32:22.654Z,7.03
2023-03-11T05:34:50.326Z,8.87
2023-03-11T05:37:18.592Z,8.90
2023-03-11T05:39:45.777Z,8.10
2023-03-11T05:42:12.754Z,12.73
2023-03-11T05:44:40.212Z,7.17
2023-03-11T05:47:07.212Z,11.57
2023-03-11T05:49:34.302Z,8.77
2023-03-11T05:52:01.164Z,9.53
2023-03-11T05:54:29.452Z,10.27
2023-03-11T05:56:56.297Z,8.10
2023-03-11T05:59:24.010Z,11.47
2023-03-11T06:01:50.961Z,10.37
2023-03-11T06:04:18.307Z,11.83
2023-03-11T06:06:45.292Z,13.23
2023-03-11T06:09:13.702Z,11.50
2023-03-11T06:11:42.555Z,12.87
2023-03-11T06:14:13.117Z,13.97
2023-03-11T06:16:40.224Z,11.10
2023-03-11T06:19:07.744Z,7.90
2023-03-11T06:21:34.698Z,12.50
2023-03-11T06:24:02.005Z,18.47
2023-03-11T06:26:29.138Z,13.97
2023-03-11T06:28:57.601Z,11.43
2023-03-11T06:31:27.094Z,10.47
2023-03-11T06:33:56.374Z,12.80
2023-03-11T06:36:25.176Z,12.33
2023-03-11T06:38:52.958Z,12.87
2023-03-11T06:41:19.933Z,16.30
2023-03-11T06:43:47.190Z,12.00
2023-03-11T06:46:17.111Z,9.07
2023-03-11T06:48:46.067Z,10.43
2023-03-11T06:51:13.867Z,11.37
2023-03-11T06:53:41.445Z,16.70
2023-03-11T06:56:11.539Z,10.40
2023-03-11T06:58:40.455Z,8.37
2023-03-11T07:01:10.119Z,6.97
2023-03-11T07:03:38.972Z,8.23
2023-03-11T07:06:06.815Z,11.57
2023-03-11T07:08:33.918Z,11.63
2023-03-11T07:11:02.529Z,14.20
2023-03-11T07:13:29.954Z,11.30
2023-03-11T07:16:01.309Z,6.97
2023-03-11T07:18:28.248Z,16.47
2023-03-11T07:20:57.130Z,11.40
2023-03-11T07:23:24.195Z,14.07
2023-03-11T07:25:53.203Z,8.13
2023-03-11T07:28:20.227Z,9.07
2023-03-11T07:30:48.582Z,6.07
2023-03-11T07:33:15.997Z,10.13
2023-03-11T07:35:43.599Z,9.47
2023-03-11T07:38:12.012Z,16.27
2023-03-11T07:40:38.920Z,9.13
2023-03-11T07:43:05.851Z,12.37
2023-03-11T07:45:33.183Z,8.20
2023-03-11T07:48:00.050Z,8.30
2023-03-11T07:50:27.417Z,9.37
2023-03-11T07:52:54.446Z,9.87
2023-03-11T07:55:23.083Z,9.40
2023-03-11T07:57:51.628Z,13.03
2023-03-11T08:00:20.046Z,14.57
2023-03-11T08:02:47.063Z,14.53
2023-03-11T08:05:14.470Z,14.40
2023-03-11T08:07:41.436Z,14.43
2023-03-11T08:10:10.051Z,11.13
2023-03-11T08:12:38.393Z,11.17
2023-03-11T08:15:07.013Z,12.07
2023-03-11T08:17:33.925Z,10.30
2023-03-11T08:20:00.792Z,10.83
2023-03-11T08:22:27.661Z,10.53
2023-03-11T08:24:56.479Z,11.57
2023-03-11T08:27:23.335Z,13.23
2023-03-11T08:29:52.046Z,10.93
2023-03-11T08:32:18.997Z,13.03
2023-03-11T08:34:46.238Z,15.80
2023-03-11T08:37:13.085Z,11.00
2023-03-11T08:39:40.298Z,14.70
2023-03-11T08:42:07.300Z,12.40
2023-03-11T08:44:34.472Z,17.27
2023-03-11T08:47:02.856Z,11.20
2023-03-11T08:49:30.091Z,11.97
2023-03-11T08:51:56.991Z,13.13
2023-03-11T08:54:23.907Z,11.80
2023-03-11T08:56:50.952Z,11.40
2023-03-11T08:59:18.387Z,14.73
2023-03-11T09:01:45.340Z,14.37
2023-03-11T09:04:14.414Z,14.23
2023-03-11T09:06:43.045Z,11.63
2023-03-11T09:09:11.825Z,11.67
2023-03-11T09:11:38.752Z,12.37
2023-03-11T09:14:05.750Z,11.43
2023-03-11T09:16:32.693Z,12.60
2023-03-11T09:19:07.326Z,11.53
2023-03-11T09:21:36.637Z,10.97
2023-03-11T09:24:04.958Z,13.00
2023-03-11T09:26:32.258Z,11.93
2023-03-11T09:28:59.208Z,12.37
2023-03-11T09:31:26.168Z,11.50
2023-03-11T09:33:53.428Z,12.93
2023-03-11T09:36:21.594Z,10.17
2023-03-11T09:38:50.331Z,13.63
2023-03-11T09:41:28.372Z,10.17
2023-03-11T09:44:11.435Z,15.77
2023-03-11T09:47:04.186Z,15.67
2023-03-11T09:49:43.554Z,6.97
2023-03-11T09:52:13.276Z,9.27
2023-03-11T09:54:44.938Z,11.37
2023-03-11T09:57:17.787Z,9.83
2023-03-11T09:59:47.202Z,9.37
2023-03-11T10:02:17.938Z,10.30
2023-03-11T10:04:53.131Z,17.53
2023-03-11T10:07:25.447Z,9.77
2023-03-11T10:09:57.252Z,12.10
2023-03-11T10:12:40.918Z,12.60
2023-03-11T10:15:19.495Z,9.90
2023-03-11T10:18:00.467Z,9.97
2023-03-11T10:20:30.834Z,12.70
2023-03-11T10:23:08.442Z,13.73
2023-03-11T10:25:47.989Z,36.37
2023-03-11T10:28:18.388Z,9.30
2023-03-11T10:30:49.219Z,16.23
2023-03-11T10:33:24.310Z,14.63
2023-03-11T10:35:54.204Z,10.27
2023-03-11T10:38:24.082Z,9.90
2023-03-11T10:40:56.537Z,9.07
2023-03-11T10:43:28.769Z,9.50
2023-03-11T10:45:55.869Z,11.60
2023-03-11T10:48:22.839Z,11.53
2023-03-11T10:50:59.145Z,7.73
2023-03-11T10:53:26.009Z,11.80
2023-03-11T10:55:57.606Z,10.00
2023-03-11T10:58:26.348Z,9.73
2023-03-11T11:01:01.527Z,12.70
2023-03-11T11:03:29.662Z,8.57
2023-03-11T11:06:02.311Z,10.00
2023-03-11T11:08:29.411Z,6.10
2023-03-11T11:10:59.869Z,8.87
2023-03-11T11:13:31.099Z,10.63
2023-03-11T11:16:01.180Z,14.97
2023-03-11T11:18:31.078Z,10.13
2023-03-11T11:21:02.399Z,9.13
2023-03-11T11:23:42.512Z,12.20
2023-03-11T11:26:19.270Z,7.40
2023-03-11T11:28:46.416Z,10.37
2023-03-11T11:31:24.076Z,10.53
2023-03-11T11:33:52.502Z,6.40
2023-03-11T11:36:24.297Z,8.97
2023-03-11T11:38:53.342Z,7.97
2023-03-11T11:41:23.582Z,8.37
2023-03-11T11:43:53.157Z,8.27
2023-03-11T11:46:25.609Z,13.20
2023-03-11T11:49:05.635Z,5.37
2023-03-11T11:51:35.247Z,11.03
2023-03-11T11:54:11.881Z,5.83
2023-03-11T11:56:41.949Z,4.67
2023-03-11T11:59:15.279Z,6.30
2023-03-11T12:01:52.388Z,6.97
2023-03-11T12:04:50.306Z,4.80
2023-03-11T12:07:35.002Z,7.13
2023-03-11T12:10:22.806Z,10.10
2023-03-11T12:13:22.760Z,9.23
2023-03-11T12:15:53.570Z,5.23
2023-03-11T12:18:25.974Z,7.90
2023-03-11T12:20:55.976Z,7.43
2023-03-11T12:23:35.519Z,3.47
2023-03-11T12:26:13.528Z,8.67
2023-03-11T12:28:47.852Z,5.77
2023-03-11T12:31:14.884Z,6.80
2023-03-11T12:33:43.978Z,7.47
2023-03-11T12:36:25.972Z,6.97
2023-03-11T12:38:54.847Z,7.30
2023-03-11T12:41:36.805Z,12.53
2023-03-11T12:44:22.052Z,5.57
2023-03-11T12:47:21.927Z,8.27
2023-03-11T12:49:52.105Z,8.13
2023-03-11T12:52:22.991Z,8.90
2023-03-11T12:55:37.277Z,4.20
2023-03-11T12:58:33.929Z,6.67
2023-03-11T13:01:29.654Z,9.37
2023-03-11T13:04:14.894Z,3.67
2023-03-11T13:07:07.509Z,8.43
2023-03-11T13:09:35.165Z,4.93
2023-03-11T13:12:02.344Z,7.47
2023-03-11T13:14:33.211Z,17.37
2023-03-11T13:19:58.872Z,4.87
2023-03-11T13:23:03.199Z,5.03
2023-03-11T13:25:38.418Z,6.60
2023-03-11T13:28:30.205Z,8.13
2023-03-11T13:31:05.417Z,10.83
2023-03-11T13:33:45.003Z,6.57
2023-03-11T13:36:26.110Z,8.50
2023-03-11T13:39:19.273Z,5.00
2023-03-11T13:41:47.943Z,6.80
2023-03-11T13:44:25.059Z,7.13
2023-03-11T13:46:57.223Z,7.27
2023-03-11T13:49:31.394Z,7.53
2023-03-11T13:52:02.729Z,4.40
2023-03-11T13:54:36.325Z,8.07
2023-03-11T13:57:03.907Z,3.40
2023-03-11T13:59:32.935Z,6.00
2023-03-11T14:02:04.172Z,4.67
2023-03-11T14:04:33.621Z,6.43
2023-03-11T14:07:13.199Z,6.43
2023-03-11T14:09:40.614Z,5.23
2023-03-11T14:12:08.403Z,8.40
2023-03-11T14:14:47.990Z,10.10
2023-03-11T14:17:17.170Z,4.03
2023-03-11T14:20:01.530Z,5.67
2023-03-11T14:22:29.814Z,7.37
2023-03-11T14:24:58.545Z,6.20
2023-03-11T14:27:25.457Z,9.53
2023-03-11T14:29:52.658Z,8.63
2023-03-11T14:32:27.480Z,8.07
2023-03-11T14:34:55.142Z,8.33
2023-03-11T14:37:30.542Z,5.57
2023-03-11T14:39:59.188Z,7.93
2023-03-11T14:42:29.606Z,5.10
2023-03-11T14:45:03.978Z,5.27
2023-03-11T14:47:36.740Z,2.80
2023-03-11T14:50:05.962Z,4.67
2023-03-11T14:52:38.280Z,5.53
2023-03-11T14:55:14.630Z,6.93
2023-03-11T14:57:45.459Z,7.47
2023-03-11T15:00:19.207Z,7.93
2023-03-11T15:02:58.161Z,7.43
2023-03-11T15:05:33.189Z,7.90
2023-03-11T15:08:03.155Z,6.20
2023-03-11T15:10:32.243Z,4.93
2023-03-11T15:13:08.989Z,5.30
2023-03-11T15:15:36.266Z,11.37
2023-03-11T15:18:03.352Z,11.97
2023-03-11T15:20:32.818Z,6.03
2023-03-11T15:23:02.099Z,3.97
2023-03-11T15:25:33.573Z,3.53
2023-03-11T15:28:13.926Z,9.23
2023-03-11T15:30:41.371Z,7.73
2023-03-11T15:33:21.515Z,9.37
2023-03-11T15:35:49.775Z,7.83
2023-03-11T15:38:21.627Z,7.90
2023-03-11T15:40:56.310Z,5.07
2023-03-11T15:43:27.570Z,3.57
2023-03-11T15:45:56.633Z,5.03
2023-03-11T15:48:24.320Z,8.37
2023-03-11T15:50:54.448Z,11.57
2023-03-11T15:53:23.143Z,7.53
2023-03-11T15:55:50.660Z,7.13
2023-03-11T15:58:19.953Z,7.13
2023-03-11T16:00:48.820Z,8.07
2023-03-11T16:03:16.136Z,5.40
2023-03-11T16:05:43.192Z,8.00
2023-03-11T16:08:10.355Z,10.83
2023-03-11T16:10:38.291Z,8.10
2023-03-11T16:13:05.484Z,6.67
2023-03-11T16:15:36.597Z,7.27
2023-03-11T16:18:05.624Z,6.73
2023-03-11T16:20:37.186Z,6.10
2023-03-11T16:23:04.709Z,9.17
2023-03-11T16:25:33.932Z,10.60
2023-03-11T16:28:01.783Z,3.43
2023-03-11T16:30:30.677Z,8.60
2023-03-11T16:32:58.932Z,4.93
2023-03-11T16:35:26.317Z,5.60
2023-03-11T16:37:53.801Z,4.07
2023-03-11T16:40:25.130Z,5.23
2023-03-11T16:42:55.232Z,6.83
2023-03-11T16:45:22.170Z,8.97
2023-03-11T16:47:48.985Z,4.83
2023-03-11T16:50:17.600Z,5.77
2023-03-11T16:52:44.632Z,4.80
2023-03-11T16:55:11.523Z,6.63
2023-03-11T16:57:39.841Z,4.33
2023-03-11T17:00:09.733Z,4.13
2023-03-11T17:02:37.677Z,3.40
2023-03-11T17:05:05.748Z,5.20
2023-03-11T17:07:34.640Z,6.10
2023-03-11T17:10:01.801Z,5.23
2023-03-11T17:12:28.655Z,6.47
2023-03-11T17:14:55.912Z,8.13
2023-03-11T17:17:23.342Z,5.40
2023-03-11T17:19:50.319Z,8.27
2023-03-11T17:22:17.809Z,8.03
2023-03-11T17:24:46.047Z,10.47
2023-03-11T17:27:13.030Z,8.13
2023-03-11T17:29:39.839Z,9.47
2023-03-11T17:32:08.059Z,7.07
2023-03-11T17:34:35.160Z,11.50
2023-03-11T17:37:02.078Z,7.73
2023-03-11T17:39:28.920Z,5.53
2023-03-11T17:41:57.666Z,8.63
2023-03-11T17:44:24.435Z,9.63
2023-03-11T17:46:52.123Z,5.90
2023-03-11T17:49:18.964Z,8.07
2023-03-11T17:51:46.089Z,13.90
2023-03-11T17:54:12.844Z,7.80
2023-03-11T17:56:39.872Z,10.00
2023-03-11T17:59:08.071Z,10.57
2023-03-11T18:01:35.620Z,7.57
2023-03-11T18:04:02.636Z,5.77
2023-03-11T18:06:29.887Z,3.07
2023-03-11T18:08:56.717Z,4.23
2023-03-11T18:11:26.322Z,5.10
2023-03-11T18:13:53.723Z,5.30
2023-03-11T18:16:24.146Z,6.33
2023-03-11T18:18:51.470Z,4.00
2023-03-11T18:21:20.598Z,7.50
2023-03-11T18:23:48.594Z,5.63
2023-03-11T18:26:18.246Z,7.53
2023-03-11T18:28:45.454Z,11.33
2023-03-11T18:31:15.042Z,9.20
2023-03-11T18:33:48.026Z,11.53
2023-03-11T18:36:17.459Z,8.80
2023-03-11T18:38:44.702Z,12.10
2023-03-11T18:41:11.556Z,7.00
2023-03-11T18:43:38.396Z,6.57
2023-03-11T18:46:08.772Z,9.70
2023-03-11T18:48:35.813Z,11.03
2023-03-11T18:51:04.739Z,7.07
2023-03-11T18:53:31.502Z,8.80
2023-03-11T18:56:03.230Z,11.17
2023-03-11T18:58:30.266Z,5.17
2023-03-11T19:01:05.215Z,10.07
2023-03-11T19:03:32.097Z,6.47
2023-03-11T19:05:59.702Z,5.37
2023-03-11T19:08:28.012Z,6.27
2023-03-11T19:10:55.241Z,6.23
2023-03-11T19:13:22.588Z,13.90
2023-03-11T19:15:49.965Z,8.70
2023-03-11T19:18:16.895Z,9.27
2023-03-11T19:20:43.783Z,6.13
2023-03-11T19:23:11.348Z,8.33
2023-03-11T19:25:41.362Z,8.20
2023-03-11T19:28:10.831Z,10.97
2023-03-11T19:30:38.055Z,7.20
2023-03-11T19:33:05.030Z,10.80
2023-03-11T19:35:32.285Z,6.87
2023-03-11T19:37:59.247Z,7.87
2023-03-11T19:40:29.987Z,7.93
2023-03-11T19:42:59.068Z,5.97
2023-03-11T19:45:26.543Z,8.87
2023-03-11T19:47:53.468Z,8.93
2023-03-11T19:50:20.396Z,4.93
2023-03-11T19:52:47.284Z,7.70
2023-03-11T19:55:14.607Z,6.57
2023-03-11T19:57:41.527Z,7.13
2023-03-11T20:00:12.284Z,7.50
2023-03-11T20:02:39.304Z,8.40
2023-03-11T20:05:07.790Z,9.10
2023-03-11T20:07:34.651Z,8.50
2023-03-11T20:10:01.880Z,6.93
2023-03-11T20:12:28.744Z,6.53
2023-03-11T20:14:55.952Z,10.30
2023-03-11T20:17:24.162Z,13.77
2023-03-11T20:19:51.616Z,9.13
2023-03-11T20:22:19.917Z,12.93
2023-03-11T20:24:47.238Z,7.30
2023-03-11T20:27:15.052Z,7.77
2023-03-11T20:29:42.332Z,7.50
2023-03-11T20:32:09.237Z,7.97
2023-03-11T20:34:38.019Z,9.43
2023-03-11T20:37:04.996Z,8.93
2023-03-11T20:39:31.951Z,10.20
2023-03-11T20:41:58.770Z,4.67
2023-03-11T20:44:26.021Z,9.83
2023-03-11T20:46:54.764Z,4.50
2023-03-11T20:49:22.076Z,5.60
2023-03-11T20:51:50.418Z,5.30
2023-03-11T20:54:17.790Z,7.07
2023-03-11T20:56:44.681Z,12.67
2023-03-11T20:59:14.036Z,4.47
2023-03-11T21:01:41.082Z,7.27
2023-03-11T21:04:08.374Z,9.30
2023-03-11T21:06:37.399Z,8.00
2023-03-11T21:09:08.639Z,5.47
2023-03-11T21:11:35.662Z,12.00
2023-03-11T21:14:03.174Z,8.63
2023-03-11T21:16:30.363Z,6.93
2023-03-11T21:18:57.992Z,5.87
2023-03-11T21:21:25.006Z,5.87
2023-03-11T21:23:52.141Z,6.63
2023-03-11T21:26:20.382Z,8.20
2023-03-11T21:28:47.724Z,4.23
2023-03-11T21:31:16.602Z,6.27
2023-03-11T21:33:44.021Z,7.13
2023-03-11T21:36:12.642Z,13.47
2023-03-11T21:38:40.890Z,9.17
2023-03-11T21:41:10.418Z,7.07
2023-03-11T21:43:39.831Z,5.67
2023-03-11T21:46:07.902Z,6.03
2023-03-11T21:48:35.427Z,8.70
2023-03-11T21:51:03.353Z,5.70
2023-03-11T21:53:31.319Z,7.27
2023-03-11T21:55:59.712Z,6.87
2023-03-11T21:58:27.400Z,5.80
2023-03-11T22:00:55.846Z,9.13
2023-03-11T22:03:23.436Z,6.23
2023-03-11T22:05:56.086Z,7.87
2023-03-11T22:08:23.374Z,10.10
2023-03-11T22:10:50.263Z,10.47
2023-03-11T22:13:17.523Z,5.53
2023-03-11T22:15:44.435Z,6.00
2023-03-11T22:18:13.106Z,6.63
2023-03-11T22:20:40.867Z,9.90
2023-03-11T22:23:07.994Z,9.60
2023-03-11T22:25:34.959Z,6.70
2023-03-11T22:28:02.482Z,6.20
2023-03-11T22:30:29.460Z,4.20
2023-03-11T22:32:56.667Z,5.17
2023-03-11T22:35:24.906Z,8.33
2023-03-11T22:37:52.074Z,10.60
2023-03-11T22:40:19.086Z,9.17
2023-03-11T22:42:46.260Z,11.60
2023-03-11T22:45:13.241Z,5.43
2023-03-11T22:47:40.417Z,8.57
2023-03-11T22:50:08.079Z,6.20
2023-03-11T22:52:36.536Z,7.90
2023-03-11T22:55:03.458Z,12.50
2023-03-11T22:57:31.201Z,8.13
2023-03-11T22:59:58.019Z,8.40
2023-03-11T23:02:25.408Z,7.37
2023-03-11T23:04:52.209Z,5.70
2023-03-11T23:07:19.039Z,6.10
2023-03-11T23:09:47.139Z,4.13
2023-03-11T23:12:14.397Z,5.10
2023-03-11T23:14:45.265Z,7.40
2023-03-11T23:17:12.405Z,9.70
2023-03-11T23:19:39.456Z,5.30
2023-03-11T23:22:08.173Z,9.37
2023-03-11T23:24:35.016Z,8.97
2023-03-11T23:27:04.974Z,10.13
2023-03-11T23:29:32.228Z,9.37
2023-03-11T23:31:59.480Z,8.90
2023-03-11T23:34:26.438Z,4.43
2023-03-11T23:36:53.344Z,8.20
2023-03-11T23:39:20.223Z,5.17
2023-03-11T23:41:47.057Z,5.57
2023-03-11T23:44:16.257Z,5.33
2023-03-11T23:46:43.540Z,5.40
2023-03-11T23:49:10.461Z,4.77
2023-03-11T23:51:37.611Z,4.27
2023-03-11T23:54:05.897Z,5.10
2023-03-11T23:56:32.764Z,7.50
2023-03-11T23:58:59.626Z,8.73
